sensor_id;sensor_type;location;lat;lon;timestamp;P1;durP1;ratioP1;P2;durP2;ratioP2
15412;SDS011;7805;49.554;7.632;2023-02-11T00:01:11;53.63;;;33.17;;
15412;SDS011;7805;49.554;7.632;2023-02-11T00:03:43;55.90;;;33.83;;
15412;SDS011;7805;49.554;7.632;2023-02-11T00:06:09;55.60;;;34.00;;
15412;SDS011;7805;49.554;7.632;2023-02-11T00:08:35;56.33;;;34.20;;
15412;SDS011;7805;49.554;7.632;2023-02-11T00:11:02;52.47;;;32.83;;
15412;SDS011;7805;49.554;7.632;2023-02-11T00:13:28;48.43;;;32.20;;
15412;SDS011;7805;49.554;7.632;2023-02-11T00:15:54;46.23;;;29.53;;
15412;SDS011;7805;49.554;7.632;2023-02-11T00:18:20;52.67;;;31.33;;
15412;SDS011;7805;49.554;7.632;2023-02-11T00:20:46;47.17;;;30.03;;
15412;SDS011;7805;49.554;7.632;2023-02-11T00:23:11;48.80;;;30.03;;
15412;SDS011;7805;49.554;7.632;2023-02-11T00:25:41;50.33;;;29.70;;
15412;SDS011;7805;49.554;7.632;2023-02-11T00:28:08;48.07;;;30.17;;
15412;SDS011;7805;49.554;7.632;2023-02-11T00:30:35;40.80;;;27.77;;
15412;SDS011;7805;49.554;7.632;2023-02-11T00:33:01;42.77;;;28.47;;
15412;SDS011;7805;49.554;7.632;2023-02-11T00:35:27;47.93;;;29.27;;
15412;SDS011;7805;49.554;7.632;2023-02-11T00:37:53;43.40;;;27.87;;
15412;SDS011;7805;49.554;7.632;2023-02-11T00:40:19;44.00;;;28.63;;
15412;SDS011;7805;49.554;7.632;2023-02-11T00:42:45;44.97;;;28.53;;
15412;SDS011;7805;49.554;7.632;2023-02-11T00:45:11;45.27;;;27.43;;
15412;SDS011;7805;49.554;7.632;2023-02-11T00:47:36;42.80;;;26.80;;
15412;SDS011;7805;49.554;7.632;2023-02-11T00:50:03;42.50;;;28.10;;
15412;SDS011;7805;49.554;7.632;2023-02-11T00:52:30;47.27;;;28.57;;
15412;SDS011;7805;49.554;7.632;2023-02-11T00:54:55;43.70;;;27.63;;
15412;SDS011;7805;49.554;7.632;2023-02-11T00:57:21;48.67;;;30.03;;
15412;SDS011;7805;49.554;7.632;2023-02-11T00:59:47;45.47;;;28.93;;
15412;SDS011;7805;49.554;7.632;2023-02-11T01:02:12;46.50;;;30.23;;
15412;SDS011;7805;49.554;7.632;2023-02-11T01:04:38;43.43;;;29.77;;
15412;SDS011;7805;49.554;7.632;2023-02-11T01:07:04;47.73;;;30.17;;
15412;SDS011;7805;49.554;7.632;2023-02-11T01:09:29;46.73;;;29.63;;
15412;SDS011;7805;49.554;7.632;2023-02-11T01:11:55;46.17;;;31.17;;
15412;SDS011;7805;49.554;7.632;2023-02-11T01:14:20;44.67;;;28.13;;
15412;SDS011;7805;49.554;7.632;2023-02-11T01:16:46;43.93;;;28.47;;
15412;SDS011;7805;49.554;7.632;2023-02-11T01:19:12;46.50;;;29.80;;
15412;SDS011;7805;49.554;7.632;2023-02-11T01:21:37;44.33;;;29.40;;
15412;SDS011;7805;49.554;7.632;2023-02-11T01:24:03;53.67;;;30.67;;
15412;SDS011;7805;49.554;7.632;2023-02-11T01:26:28;50.07;;;29.30;;
15412;SDS011;7805;49.554;7.632;2023-02-11T01:28:54;47.53;;;30.83;;
15412;SDS011;7805;49.554;7.632;2023-02-11T01:31:19;48.50;;;30.70;;
15412;SDS011;7805;49.554;7.632;2023-02-11T01:33:45;42.23;;;27.93;;
15412;SDS011;7805;49.554;7.632;2023-02-11T01:36:11;47.40;;;30.77;;
15412;SDS011;7805;49.554;7.632;2023-02-11T01:38:37;46.40;;;29.93;;
15412;SDS011;7805;49.554;7.632;2023-02-11T01:41:06;48.13;;;30.53;;
15412;SDS011;7805;49.554;7.632;2023-02-11T01:43:39;43.50;;;29.40;;
15412;SDS011;7805;49.554;7.632;2023-02-11T01:51:42;48.93;;;33.83;;
15412;SDS011;7805;49.554;7.632;2023-02-11T01:54:16;46.57;;;30.73;;
15412;SDS011;7805;49.554;7.632;2023-02-11T01:57:03;45.73;;;28.87;;
15412;SDS011;7805;49.554;7.632;2023-02-11T02:00:23;47.47;;;28.13;;
15412;SDS011;7805;49.554;7.632;2023-02-11T02:08:10;43.03;;;29.30;;
15412;SDS011;7805;49.554;7.632;2023-02-11T02:10:42;47.37;;;29.87;;
15412;SDS011;7805;49.554;7.632;2023-02-11T02:13:12;47.87;;;29.07;;
15412;SDS011;7805;49.554;7.632;2023-02-11T02:15:40;44.47;;;29.03;;
15412;SDS011;7805;49.554;7.632;2023-02-11T02:34:02;45.07;;;28.97;;
15412;SDS011;7805;49.554;7.632;2023-02-11T02:36:46;43.37;;;27.77;;
15412;SDS011;7805;49.554;7.632;2023-02-11T02:39:20;40.77;;;26.77;;
15412;SDS011;7805;49.554;7.632;2023-02-11T02:41:48;48.07;;;29.57;;
15412;SDS011;7805;49.554;7.632;2023-02-11T02:44:16;45.00;;;29.60;;
15412;SDS011;7805;49.554;7.632;2023-02-11T02:46:43;45.30;;;29.57;;
15412;SDS011;7805;49.554;7.632;2023-02-11T02:49:12;44.70;;;30.10;;
15412;SDS011;7805;49.554;7.632;2023-02-11T03:00:00;47.83;;;29.00;;
15412;SDS011;7805;49.554;7.632;2023-02-11T03:05:05;43.37;;;27.10;;
15412;SDS011;7805;49.554;7.632;2023-02-11T03:10:12;44.57;;;28.03;;
15412;SDS011;7805;49.554;7.632;2023-02-11T03:12:49;42.13;;;26.87;;
15412;SDS011;7805;49.554;7.632;2023-02-11T03:15:16;40.73;;;25.73;;
15412;SDS011;7805;49.554;7.632;2023-02-11T03:17:44;41.17;;;25.50;;
15412;SDS011;7805;49.554;7.632;2023-02-11T03:20:13;41.03;;;25.93;;
15412;SDS011;7805;49.554;7.632;2023-02-11T03:22:49;41.67;;;25.97;;
15412;SDS011;7805;49.554;7.632;2023-02-11T03:25:20;40.00;;;27.20;;
15412;SDS011;7805;49.554;7.632;2023-02-11T03:27:57;43.07;;;27.20;;
15412;SDS011;7805;49.554;7.632;2023-02-11T03:30:46;40.30;;;25.80;;
15412;SDS011;7805;49.554;7.632;2023-02-11T03:35:49;35.47;;;24.07;;
15412;SDS011;7805;49.554;7.632;2023-02-11T03:38:20;48.43;;;28.50;;
15412;SDS011;7805;49.554;7.632;2023-02-11T03:40:51;44.90;;;27.93;;
15412;SDS011;7805;49.554;7.632;2023-02-11T03:43:20;48.37;;;29.93;;
15412;SDS011;7805;49.554;7.632;2023-02-11T03:45:50;42.27;;;28.70;;
15412;SDS011;7805;49.554;7.632;2023-02-11T03:48:18;40.57;;;26.37;;
15412;SDS011;7805;49.554;7.632;2023-02-11T03:50:51;40.43;;;26.60;;
15412;SDS011;7805;49.554;7.632;2023-02-11T03:53:19;41.33;;;25.43;;
15412;SDS011;7805;49.554;7.632;2023-02-11T03:55:46;41.10;;;26.33;;
15412;SDS011;7805;49.554;7.632;2023-02-11T03:58:14;41.47;;;25.93;;
15412;SDS011;7805;49.554;7.632;2023-02-11T04:00:41;43.00;;;27.43;;
15412;SDS011;7805;49.554;7.632;2023-02-11T04:03:08;40.33;;;27.00;;
15412;SDS011;7805;49.554;7.632;2023-02-11T04:05:35;41.67;;;27.87;;
15412;SDS011;7805;49.554;7.632;2023-02-11T04:08:01;38.13;;;25.23;;
15412;SDS011;7805;49.554;7.632;2023-02-11T04:10:27;41.57;;;28.07;;
15412;SDS011;7805;49.554;7.632;2023-02-11T04:12:53;41.67;;;25.93;;
15412;SDS011;7805;49.554;7.632;2023-02-11T04:15:19;39.43;;;26.27;;
15412;SDS011;7805;49.554;7.632;2023-02-11T04:17:45;40.73;;;27.10;;
15412;SDS011;7805;49.554;7.632;2023-02-11T04:20:10;42.93;;;28.00;;
15412;SDS011;7805;49.554;7.632;2023-02-11T04:22:36;47.67;;;29.17;;
15412;SDS011;7805;49.554;7.632;2023-02-11T04:25:03;44.97;;;29.00;;
15412;SDS011;7805;49.554;7.632;2023-02-11T04:27:29;43.27;;;27.43;;
15412;SDS011;7805;49.554;7.632;2023-02-11T04:29:55;42.23;;;27.53;;
15412;SDS011;7805;49.554;7.632;2023-02-11T04:32:20;44.30;;;27.33;;
15412;SDS011;7805;49.554;7.632;2023-02-11T04:34:46;44.47;;;26.80;;
15412;SDS011;7805;49.554;7.632;2023-02-11T04:37:12;41.10;;;25.73;;
15412;SDS011;7805;49.554;7.632;2023-02-11T04:39:37;43.07;;;27.63;;
15412;SDS011;7805;49.554;7.632;2023-02-11T04:42:03;46.10;;;28.07;;
15412;SDS011;7805;49.554;7.632;2023-02-11T04:44:29;39.33;;;24.60;;
15412;SDS011;7805;49.554;7.632;2023-02-11T04:46:54;41.23;;;26.73;;
15412;SDS011;7805;49.554;7.632;2023-02-11T04:49:20;41.50;;;25.97;;
15412;SDS011;7805;49.554;7.632;2023-02-11T04:51:45;41.00;;;25.70;;
15412;SDS011;7805;49.554;7.632;2023-02-11T04:54:11;38.13;;;22.83;;
15412;SDS011;7805;49.554;7.632;2023-02-11T04:56:37;37.73;;;23.97;;
15412;SDS011;7805;49.554;7.632;2023-02-11T04:59:03;37.87;;;23.77;;
15412;SDS011;7805;49.554;7.632;2023-02-11T05:01:29;39.27;;;24.20;;
15412;SDS011;7805;49.554;7.632;2023-02-11T05:03:56;40.37;;;25.27;;
15412;SDS011;7805;49.554;7.632;2023-02-11T05:06:22;35.67;;;24.10;;
15412;SDS011;7805;49.554;7.632;2023-02-11T05:08:48;40.40;;;25.20;;
15412;SDS011;7805;49.554;7.632;2023-02-11T05:11:14;35.77;;;24.10;;
15412;SDS011;7805;49.554;7.632;2023-02-11T05:13:42;40.00;;;25.07;;
15412;SDS011;7805;49.554;7.632;2023-02-11T05:16:08;35.97;;;22.90;;
15412;SDS011;7805;49.554;7.632;2023-02-11T05:18:36;37.17;;;24.23;;
15412;SDS011;7805;49.554;7.632;2023-02-11T05:21:06;36.87;;;24.80;;
15412;SDS011;7805;49.554;7.632;2023-02-11T05:23:37;39.00;;;24.27;;
15412;SDS011;7805;49.554;7.632;2023-02-11T05:26:04;35.20;;;23.20;;
15412;SDS011;7805;49.554;7.632;2023-02-11T05:28:30;37.03;;;23.80;;
15412;SDS011;7805;49.554;7.632;2023-02-11T05:30:56;36.73;;;23.00;;
15412;SDS011;7805;49.554;7.632;2023-02-11T05:33:22;32.40;;;21.40;;
15412;SDS011;7805;49.554;7.632;2023-02-11T05:35:48;37.40;;;23.47;;
15412;SDS011;7805;49.554;7.632;2023-02-11T05:38:13;33.63;;;22.80;;
15412;SDS011;7805;49.554;7.632;2023-02-11T05:40:39;35.80;;;23.53;;
15412;SDS011;7805;49.554;7.632;2023-02-11T05:43:05;38.33;;;24.80;;
15412;SDS011;7805;49.554;7.632;2023-02-11T05:45:30;42.53;;;22.90;;
15412;SDS011;7805;49.554;7.632;2023-02-11T05:47:56;35.00;;;23.20;;
15412;SDS011;7805;49.554;7.632;2023-02-11T05:50:22;34.17;;;22.77;;
15412;SDS011;7805;49.554;7.632;2023-02-11T05:52:47;35.17;;;22.90;;
15412;SDS011;7805;49.554;7.632;2023-02-11T05:55:13;35.50;;;23.47;;
15412;SDS011;7805;49.554;7.632;2023-02-11T05:57:38;38.30;;;23.60;;
15412;SDS011;7805;49.554;7.632;2023-02-11T06:00:04;41.47;;;24.73;;
15412;SDS011;7805;49.554;7.632;2023-02-11T06:02:31;34.53;;;23.50;;
15412;SDS011;7805;49.554;7.632;2023-02-11T06:04:56;37.10;;;23.37;;
15412;SDS011;7805;49.554;7.632;2023-02-11T06:07:22;40.87;;;23.17;;
15412;SDS011;7805;49.554;7.632;2023-02-11T06:09:47;33.27;;;22.00;;
15412;SDS011;7805;49.554;7.632;2023-02-11T06:12:13;32.63;;;22.00;;
15412;SDS011;7805;49.554;7.632;2023-02-11T06:14:39;34.50;;;22.27;;
15412;SDS011;7805;49.554;7.632;2023-02-11T06:17:04;34.63;;;22.40;;
15412;SDS011;7805;49.554;7.632;2023-02-11T06:19:30;37.97;;;23.33;;
15412;SDS011;7805;49.554;7.632;2023-02-11T06:21:56;36.33;;;22.83;;
15412;SDS011;7805;49.554;7.632;2023-02-11T06:24:22;47.60;;;27.97;;
15412;SDS011;7805;49.554;7.632;2023-02-11T06:26:48;38.93;;;23.67;;
15412;SDS011;7805;49.554;7.632;2023-02-11T06:29:14;33.57;;;23.63;;
15412;SDS011;7805;49.554;7.632;2023-02-11T06:31:39;36.73;;;23.10;;
15412;SDS011;7805;49.554;7.632;2023-02-11T06:34:05;33.67;;;22.23;;
15412;SDS011;7805;49.554;7.632;2023-02-11T06:36:32;35.13;;;22.23;;
15412;SDS011;7805;49.554;7.632;2023-02-11T06:38:58;33.00;;;22.17;;
15412;SDS011;7805;49.554;7.632;2023-02-11T06:41:23;33.63;;;20.97;;
15412;SDS011;7805;49.554;7.632;2023-02-11T06:43:49;33.60;;;21.50;;
15412;SDS011;7805;49.554;7.632;2023-02-11T06:46:16;38.37;;;23.23;;
15412;SDS011;7805;49.554;7.632;2023-02-11T06:48:42;38.20;;;22.97;;
15412;SDS011;7805;49.554;7.632;2023-02-11T06:51:08;34.90;;;23.37;;
15412;SDS011;7805;49.554;7.632;2023-02-11T06:53:35;34.30;;;22.20;;
15412;SDS011;7805;49.554;7.632;2023-02-11T06:56:03;34.93;;;23.03;;
15412;SDS011;7805;49.554;7.632;2023-02-11T06:58:30;35.27;;;22.80;;
15412;SDS011;7805;49.554;7.632;2023-02-11T07:00:56;35.47;;;23.60;;
15412;SDS011;7805;49.554;7.632;2023-02-11T07:03:22;33.30;;;21.30;;
15412;SDS011;7805;49.554;7.632;2023-02-11T07:05:47;35.17;;;23.57;;
15412;SDS011;7805;49.554;7.632;2023-02-11T07:08:13;37.93;;;23.93;;
15412;SDS011;7805;49.554;7.632;2023-02-11T07:10:39;35.70;;;24.33;;
15412;SDS011;7805;49.554;7.632;2023-02-11T07:13:04;34.50;;;24.33;;
15412;SDS011;7805;49.554;7.632;2023-02-11T07:15:30;33.17;;;22.60;;
15412;SDS011;7805;49.554;7.632;2023-02-11T07:17:55;42.23;;;25.40;;
15412;SDS011;7805;49.554;7.632;2023-02-11T07:20:21;38.17;;;24.70;;
15412;SDS011;7805;49.554;7.632;2023-02-11T07:22:47;45.63;;;27.80;;
15412;SDS011;7805;49.554;7.632;2023-02-11T07:25:12;38.70;;;25.10;;
15412;SDS011;7805;49.554;7.632;2023-02-11T07:27:38;33.90;;;21.77;;
15412;SDS011;7805;49.554;7.632;2023-02-11T07:30:04;36.60;;;22.83;;
15412;SDS011;7805;49.554;7.632;2023-02-11T07:32:29;40.77;;;27.47;;
15412;SDS011;7805;49.554;7.632;2023-02-11T07:34:55;41.17;;;26.63;;
15412;SDS011;7805;49.554;7.632;2023-02-11T07:37:21;39.47;;;27.73;;
15412;SDS011;7805;49.554;7.632;2023-02-11T07:39:47;40.43;;;25.40;;
15412;SDS011;7805;49.554;7.632;2023-02-11T07:42:12;38.27;;;22.87;;
15412;SDS011;7805;49.554;7.632;2023-02-11T07:44:38;37.60;;;24.37;;
15412;SDS011;7805;49.554;7.632;2023-02-11T07:47:03;40.23;;;24.80;;
15412;SDS011;7805;49.554;7.632;2023-02-11T07:49:29;35.80;;;23.40;;
15412;SDS011;7805;49.554;7.632;2023-02-11T07:51:54;34.80;;;22.70;;
15412;SDS011;7805;49.554;7.632;2023-02-11T07:54:20;31.30;;;22.33;;
15412;SDS011;7805;49.554;7.632;2023-02-11T07:56:46;37.23;;;23.80;;
15412;SDS011;7805;49.554;7.632;2023-02-11T07:59:11;35.57;;;24.30;;
15412;SDS011;7805;49.554;7.632;2023-02-11T08:01:37;37.77;;;24.73;;
15412;SDS011;7805;49.554;7.632;2023-02-11T08:04:02;39.70;;;23.63;;
15412;SDS011;7805;49.554;7.632;2023-02-11T08:06:29;30.90;;;21.30;;
15412;SDS011;7805;49.554;7.632;2023-02-11T08:08:57;36.60;;;23.43;;
15412;SDS011;7805;49.554;7.632;2023-02-11T08:11:27;34.20;;;23.40;;
15412;SDS011;7805;49.554;7.632;2023-02-11T08:13:54;34.03;;;22.93;;
15412;SDS011;7805;49.554;7.632;2023-02-11T08:18:50;35.20;;;23.40;;
15412;SDS011;7805;49.554;7.632;2023-02-11T08:21:16;34.87;;;23.57;;
15412;SDS011;7805;49.554;7.632;2023-02-11T08:23:43;31.13;;;21.10;;
15412;SDS011;7805;49.554;7.632;2023-02-11T08:26:10;31.53;;;21.40;;
15412;SDS011;7805;49.554;7.632;2023-02-11T08:28:38;31.33;;;22.33;;
15412;SDS011;7805;49.554;7.632;2023-02-11T08:31:10;31.07;;;19.40;;
15412;SDS011;7805;49.554;7.632;2023-02-11T08:33:55;30.67;;;21.70;;
15412;SDS011;7805;49.554;7.632;2023-02-11T08:36:26;29.33;;;19.37;;
15412;SDS011;7805;49.554;7.632;2023-02-11T08:38:57;28.93;;;20.63;;
15412;SDS011;7805;49.554;7.632;2023-02-11T08:41:24;32.53;;;20.80;;
15412;SDS011;7805;49.554;7.632;2023-02-11T08:43:50;29.90;;;20.60;;
15412;SDS011;7805;49.554;7.632;2023-02-11T08:46:16;27.67;;;19.80;;
15412;SDS011;7805;49.554;7.632;2023-02-11T08:48:43;32.13;;;20.20;;
15412;SDS011;7805;49.554;7.632;2023-02-11T08:51:12;31.77;;;21.57;;
15412;SDS011;7805;49.554;7.632;2023-02-11T08:53:46;29.67;;;20.27;;
15412;SDS011;7805;49.554;7.632;2023-02-11T08:56:13;30.37;;;20.47;;
15412;SDS011;7805;49.554;7.632;2023-02-11T08:58:40;30.13;;;20.57;;
15412;SDS011;7805;49.554;7.632;2023-02-11T09:01:13;31.50;;;20.80;;
15412;SDS011;7805;49.554;7.632;2023-02-11T09:03:41;32.43;;;21.47;;
15412;SDS011;7805;49.554;7.632;2023-02-11T09:06:07;30.80;;;21.63;;
15412;SDS011;7805;49.554;7.632;2023-02-11T09:08:37;33.27;;;22.30;;
15412;SDS011;7805;49.554;7.632;2023-02-11T09:11:08;32.37;;;21.67;;
15412;SDS011;7805;49.554;7.632;2023-02-11T09:13:34;38.33;;;23.23;;
15412;SDS011;7805;49.554;7.632;2023-02-11T09:16:02;46.87;;;26.63;;
15412;SDS011;7805;49.554;7.632;2023-02-11T09:18:29;34.43;;;22.27;;
15412;SDS011;7805;49.554;7.632;2023-02-11T09:21:02;30.83;;;21.90;;
15412;SDS011;7805;49.554;7.632;2023-02-11T09:23:30;33.13;;;20.43;;
15412;SDS011;7805;49.554;7.632;2023-02-11T09:25:58;35.43;;;24.13;;
15412;SDS011;7805;49.554;7.632;2023-02-11T09:28:44;36.43;;;22.23;;
15412;SDS011;7805;49.554;7.632;2023-02-11T09:31:11;34.40;;;22.07;;
15412;SDS011;7805;49.554;7.632;2023-02-11T09:33:40;32.83;;;21.93;;
15412;SDS011;7805;49.554;7.632;2023-02-11T09:36:11;32.87;;;22.53;;
15412;SDS011;7805;49.554;7.632;2023-02-11T09:38:38;30.00;;;20.97;;
15412;SDS011;7805;49.554;7.632;2023-02-11T09:41:03;35.67;;;23.40;;
15412;SDS011;7805;49.554;7.632;2023-02-11T09:43:53;115.50;;;54.47;;
15412;SDS011;7805;49.554;7.632;2023-02-11T09:46:20;38.23;;;23.47;;
15412;SDS011;7805;49.554;7.632;2023-02-11T09:48:48;49.70;;;27.00;;
15412;SDS011;7805;49.554;7.632;2023-02-11T09:51:18;35.33;;;22.83;;
15412;SDS011;7805;49.554;7.632;2023-02-11T09:53:47;39.97;;;20.90;;
15412;SDS011;7805;49.554;7.632;2023-02-11T09:56:18;58.87;;;25.17;;
15412;SDS011;7805;49.554;7.632;2023-02-11T09:58:43;67.27;;;25.97;;
15412;SDS011;7805;49.554;7.632;2023-02-11T10:04:00;36.40;;;23.80;;
15412;SDS011;7805;49.554;7.632;2023-02-11T10:09:09;35.23;;;22.37;;
15412;SDS011;7805;49.554;7.632;2023-02-11T10:17:17;31.80;;;20.67;;
15412;SDS011;7805;49.554;7.632;2023-02-11T10:20:00;34.37;;;21.63;;
15412;SDS011;7805;49.554;7.632;2023-02-11T10:22:48;35.40;;;21.97;;
15412;SDS011;7805;49.554;7.632;2023-02-11T10:25:24;34.40;;;21.00;;
15412;SDS011;7805;49.554;7.632;2023-02-11T10:27:53;33.80;;;21.67;;
15412;SDS011;7805;49.554;7.632;2023-02-11T10:30:32;31.27;;;20.43;;
15412;SDS011;7805;49.554;7.632;2023-02-11T10:35:38;30.00;;;20.13;;
15412;SDS011;7805;49.554;7.632;2023-02-11T10:38:07;35.83;;;21.60;;
15412;SDS011;7805;49.554;7.632;2023-02-11T10:40:32;36.03;;;23.43;;
15412;SDS011;7805;49.554;7.632;2023-02-11T10:42:59;31.03;;;21.07;;
15412;SDS011;7805;49.554;7.632;2023-02-11T10:45:32;36.77;;;21.33;;
15412;SDS011;7805;49.554;7.632;2023-02-11T10:48:04;29.40;;;21.33;;
15412;SDS011;7805;49.554;7.632;2023-02-11T10:50:49;32.30;;;21.37;;
15412;SDS011;7805;49.554;7.632;2023-02-11T10:53:20;30.57;;;20.83;;
15412;SDS011;7805;49.554;7.632;2023-02-11T10:55:52;31.23;;;21.27;;
15412;SDS011;7805;49.554;7.632;2023-02-11T10:58:27;31.33;;;20.47;;
15412;SDS011;7805;49.554;7.632;2023-02-11T11:00:56;32.23;;;21.67;;
15412;SDS011;7805;49.554;7.632;2023-02-11T11:03:24;35.27;;;18.83;;
15412;SDS011;7805;49.554;7.632;2023-02-11T11:06:00;30.50;;;20.57;;
15412;SDS011;7805;49.554;7.632;2023-02-11T11:08:41;29.60;;;20.47;;
15412;SDS011;7805;49.554;7.632;2023-02-11T11:13:53;29.37;;;20.67;;
15412;SDS011;7805;49.554;7.632;2023-02-11T11:16:30;29.10;;;19.80;;
15412;SDS011;7805;49.554;7.632;2023-02-11T11:21:50;27.73;;;19.07;;
15412;SDS011;7805;49.554;7.632;2023-02-11T11:26:58;30.57;;;19.60;;
15412;SDS011;7805;49.554;7.632;2023-02-11T11:29:31;32.20;;;19.80;;
15412;SDS011;7805;49.554;7.632;2023-02-11T11:34:39;29.93;;;20.33;;
15412;SDS011;7805;49.554;7.632;2023-02-11T11:37:11;32.77;;;19.40;;
15412;SDS011;7805;49.554;7.632;2023-02-11T11:39:40;30.67;;;20.63;;
15412;SDS011;7805;49.554;7.632;2023-02-11T11:45:00;30.43;;;20.80;;
15412;SDS011;7805;49.554;7.632;2023-02-11T11:55:40;27.50;;;20.10;;
15412;SDS011;7805;49.554;7.632;2023-02-11T11:58:11;30.10;;;20.40;;
15412;SDS011;7805;49.554;7.632;2023-02-11T12:06:34;28.83;;;19.57;;
15412;SDS011;7805;49.554;7.632;2023-02-11T12:12:16;36.13;;;21.37;;
15412;SDS011;7805;49.554;7.632;2023-02-11T12:23:17;27.67;;;20.13;;
15412;SDS011;7805;49.554;7.632;2023-02-11T12:25:59;29.20;;;19.07;;
15412;SDS011;7805;49.554;7.632;2023-02-11T12:43:24;33.37;;;22.40;;
15412;SDS011;7805;49.554;7.632;2023-02-11T12:56:31;32.13;;;20.57;;
15412;SDS011;7805;49.554;7.632;2023-02-11T12:59:04;36.63;;;26.00;;
15412;SDS011;7805;49.554;7.632;2023-02-11T13:01:39;29.20;;;20.60;;
15412;SDS011;7805;49.554;7.632;2023-02-11T13:04:11;28.30;;;20.00;;
15412;SDS011;7805;49.554;7.632;2023-02-11T13:06:44;42.77;;;25.13;;
15412;SDS011;7805;49.554;7.632;2023-02-11T13:09:19;35.77;;;25.33;;
15412;SDS011;7805;49.554;7.632;2023-02-11T13:11:50;31.57;;;21.17;;
15412;SDS011;7805;49.554;7.632;2023-02-11T13:16:50;34.03;;;22.73;;
15412;SDS011;7805;49.554;7.632;2023-02-11T13:22:33;28.53;;;19.83;;
15412;SDS011;7805;49.554;7.632;2023-02-11T13:25:17;29.80;;;21.17;;
15412;SDS011;7805;49.554;7.632;2023-02-11T13:28:08;32.57;;;21.40;;
15412;SDS011;7805;49.554;7.632;2023-02-11T13:30:39;30.37;;;21.27;;
15412;SDS011;7805;49.554;7.632;2023-02-11T13:38:25;27.93;;;19.47;;
15412;SDS011;7805;49.554;7.632;2023-02-11T13:44:01;27.67;;;18.07;;
15412;SDS011;7805;49.554;7.632;2023-02-11T13:49:39;28.87;;;18.73;;
15412;SDS011;7805;49.554;7.632;2023-02-11T13:52:15;28.33;;;19.23;;
15412;SDS011;7805;49.554;7.632;2023-02-11T13:54:45;26.67;;;19.23;;
15412;SDS011;7805;49.554;7.632;2023-02-11T13:59:48;52.13;;;33.17;;
15412;SDS011;7805;49.554;7.632;2023-02-11T14:10:55;31.17;;;19.67;;
15412;SDS011;7805;49.554;7.632;2023-02-11T14:16:11;30.13;;;19.77;;
15412;SDS011;7805;49.554;7.632;2023-02-11T14:23:52;30.03;;;19.57;;
15412;SDS011;7805;49.554;7.632;2023-02-11T14:31:58;29.27;;;19.93;;
15412;SDS011;7805;49.554;7.632;2023-02-11T14:40:28;30.47;;;20.50;;
15412;SDS011;7805;49.554;7.632;2023-02-11T14:43:24;28.53;;;19.90;;
15412;SDS011;7805;49.554;7.632;2023-02-11T14:45:53;30.87;;;20.80;;
15412;SDS011;7805;49.554;7.632;2023-02-11T14:48:21;29.67;;;20.33;;
15412;SDS011;7805;49.554;7.632;2023-02-11T14:53:40;28.07;;;19.67;;
15412;SDS011;7805;49.554;7.632;2023-02-11T14:56:20;38.67;;;21.57;;
15412;SDS011;7805;49.554;7.632;2023-02-11T14:58:50;28.63;;;19.90;;
15412;SDS011;7805;49.554;7.632;2023-02-11T15:03:59;36.20;;;21.57;;
15412;SDS011;7805;49.554;7.632;2023-02-11T15:06:37;27.50;;;17.87;;
15412;SDS011;7805;49.554;7.632;2023-02-11T15:09:05;30.63;;;20.97;;
15412;SDS011;7805;49.554;7.632;2023-02-11T15:11:44;32.57;;;21.53;;
15412;SDS011;7805;49.554;7.632;2023-02-11T15:14:20;29.07;;;20.77;;
15412;SDS011;7805;49.554;7.632;2023-02-11T15:16:52;33.23;;;21.90;;
15412;SDS011;7805;49.554;7.632;2023-02-11T15:21:52;29.83;;;21.53;;
15412;SDS011;7805;49.554;7.632;2023-02-11T15:24:28;35.27;;;22.47;;
15412;SDS011;7805;49.554;7.632;2023-02-11T15:26:57;31.40;;;21.13;;
15412;SDS011;7805;49.554;7.632;2023-02-11T15:29:24;32.53;;;20.80;;
15412;SDS011;7805;49.554;7.632;2023-02-11T15:32:01;32.57;;;21.03;;
15412;SDS011;7805;49.554;7.632;2023-02-11T15:34:29;32.30;;;20.40;;
15412;SDS011;7805;49.554;7.632;2023-02-11T15:36:55;31.53;;;20.87;;
15412;SDS011;7805;49.554;7.632;2023-02-11T15:39:29;33.03;;;22.97;;
15412;SDS011;7805;49.554;7.632;2023-02-11T15:44:47;35.63;;;23.50;;
15412;SDS011;7805;49.554;7.632;2023-02-11T15:47:19;38.43;;;23.37;;
15412;SDS011;7805;49.554;7.632;2023-02-11T15:49:46;30.40;;;20.70;;
15412;SDS011;7805;49.554;7.632;2023-02-11T15:52:13;32.73;;;21.60;;
15412;SDS011;7805;49.554;7.632;2023-02-11T15:54:45;34.10;;;21.80;;
15412;SDS011;7805;49.554;7.632;2023-02-11T15:57:12;33.77;;;21.47;;
15412;SDS011;7805;49.554;7.632;2023-02-11T15:59:46;32.60;;;21.23;;
15412;SDS011;7805;49.554;7.632;2023-02-11T16:02:18;38.50;;;23.73;;
15412;SDS011;7805;49.554;7.632;2023-02-11T16:05:23;38.57;;;25.83;;
15412;SDS011;7805;49.554;7.632;2023-02-11T16:07:49;35.70;;;23.10;;
15412;SDS011;7805;49.554;7.632;2023-02-11T16:12:53;54.83;;;32.43;;
15412;SDS011;7805;49.554;7.632;2023-02-11T16:18:03;48.73;;;29.83;;
15412;SDS011;7805;49.554;7.632;2023-02-11T16:20:38;45.23;;;26.53;;
15412;SDS011;7805;49.554;7.632;2023-02-11T16:23:04;40.40;;;26.27;;
15412;SDS011;7805;49.554;7.632;2023-02-11T16:25:31;31.83;;;21.87;;
15412;SDS011;7805;49.554;7.632;2023-02-11T16:27:58;33.63;;;21.33;;
15412;SDS011;7805;49.554;7.632;2023-02-11T16:30:33;30.93;;;21.13;;
15412;SDS011;7805;49.554;7.632;2023-02-11T16:33:01;29.13;;;20.80;;
15412;SDS011;7805;49.554;7.632;2023-02-11T16:35:28;29.10;;;20.20;;
15412;SDS011;7805;49.554;7.632;2023-02-11T16:37:54;37.87;;;23.27;;
15412;SDS011;7805;49.554;7.632;2023-02-11T16:40:20;34.97;;;23.60;;
15412;SDS011;7805;49.554;7.632;2023-02-11T16:42:47;39.13;;;24.23;;
15412;SDS011;7805;49.554;7.632;2023-02-11T16:45:13;37.07;;;24.20;;
15412;SDS011;7805;49.554;7.632;2023-02-11T16:47:39;34.83;;;23.57;;
15412;SDS011;7805;49.554;7.632;2023-02-11T16:50:07;39.67;;;25.30;;
15412;SDS011;7805;49.554;7.632;2023-02-11T16:52:35;36.77;;;24.83;;
15412;SDS011;7805;49.554;7.632;2023-02-11T16:55:01;32.87;;;21.40;;
15412;SDS011;7805;49.554;7.632;2023-02-11T16:57:29;29.27;;;20.20;;
15412;SDS011;7805;49.554;7.632;2023-02-11T16:59:55;28.70;;;19.73;;
15412;SDS011;7805;49.554;7.632;2023-02-11T17:02:27;31.23;;;21.80;;
15412;SDS011;7805;49.554;7.632;2023-02-11T17:04:57;31.87;;;20.43;;
15412;SDS011;7805;49.554;7.632;2023-02-11T17:07:24;28.80;;;21.20;;
15412;SDS011;7805;49.554;7.632;2023-02-11T17:09:50;32.20;;;21.33;;
15412;SDS011;7805;49.554;7.632;2023-02-11T17:12:16;30.07;;;22.07;;
15412;SDS011;7805;49.554;7.632;2023-02-11T17:14:42;32.30;;;22.03;;
15412;SDS011;7805;49.554;7.632;2023-02-11T17:17:08;46.97;;;31.40;;
15412;SDS011;7805;49.554;7.632;2023-02-11T17:19:34;38.80;;;26.33;;
15412;SDS011;7805;49.554;7.632;2023-02-11T17:22:03;35.20;;;23.20;;
15412;SDS011;7805;49.554;7.632;2023-02-11T17:24:29;30.03;;;20.93;;
15412;SDS011;7805;49.554;7.632;2023-02-11T17:26:55;30.40;;;18.87;;
15412;SDS011;7805;49.554;7.632;2023-02-11T17:29:21;26.53;;;18.80;;
15412;SDS011;7805;49.554;7.632;2023-02-11T17:31:48;26.77;;;20.67;;
15412;SDS011;7805;49.554;7.632;2023-02-11T17:34:15;27.57;;;19.60;;
15412;SDS011;7805;49.554;7.632;2023-02-11T17:36:42;29.93;;;20.50;;
15412;SDS011;7805;49.554;7.632;2023-02-11T17:39:08;34.10;;;20.50;;
15412;SDS011;7805;49.554;7.632;2023-02-11T17:41:35;28.27;;;20.17;;
15412;SDS011;7805;49.554;7.632;2023-02-11T17:44:02;28.03;;;19.57;;
15412;SDS011;7805;49.554;7.632;2023-02-11T17:46:28;28.80;;;18.97;;
15412;SDS011;7805;49.554;7.632;2023-02-11T17:48:54;27.53;;;18.77;;
15412;SDS011;7805;49.554;7.632;2023-02-11T17:51:23;25.10;;;17.87;;